createdAt,value
2018-06-19T00:00:33.049Z,1010.8
2018-06-19T00:01:35.045Z,1010.8
2018-06-19T00:02:37.051Z,1010.8
2018-06-19T00:03:39.041Z,1010.8
2018-06-19T00:04:41.355Z,1010.8
2018-06-19T00:05:43.648Z,1010.8
2018-06-19T00:06:45.646Z,1010.8
2018-06-19T00:07:47.652Z,1010.8
2018-06-19T00:08:49.651Z,1010.7
2018-06-19T00:09:51.650Z,1010.7
2018-06-19T00:10:53.651Z,1010.7
2018-06-19T00:11:55.650Z,1010.7
2018-06-19T00:12:57.705Z,1010.7
2018-06-19T00:13:59.647Z,1010.7
2018-06-19T00:15:01.650Z,1010.7
2018-06-19T00:16:03.650Z,1010.7
2018-06-19T00:17:05.650Z,1010.7
2018-06-19T00:18:07.652Z,1010.7
2018-06-19T00:19:09.660Z,1010.7
2018-06-19T00:20:12.045Z,1010.8
2018-06-19T00:21:14.036Z,1010.8
2018-06-19T00:22:16.036Z,1010.8
2018-06-19T00:23:18.040Z,1010.7
2018-06-19T00:24:20.037Z,1010.7
2018-06-19T00:25:22.333Z,1010.7
2018-06-19T00:26:24.335Z,1010.8
2018-06-19T00:27:26.729Z,1010.7
2018-06-19T00:28:28.719Z,1010.7
2018-06-19T00:29:30.996Z,1010.7
2018-06-19T00:30:32.999Z,1010.6
2018-06-19T00:31:34.996Z,1010.7
2018-06-19T00:32:36.997Z,1010.6
2018-06-19T00:33:38.993Z,1010.6
2018-06-19T00:34:41.274Z,1010.6
2018-06-19T00:35:43.264Z,1010.7
2018-06-19T00:36:45.264Z,1010.6
2018-06-19T00:37:47.285Z,1010.6
2018-06-19T00:38:49.270Z,1010.6
2018-06-19T00:39:51.275Z,1010.6
2018-06-19T00:40:53.265Z,1010.5
2018-06-19T00:41:55.280Z,1010.6
2018-06-19T00:42:57.273Z,1010.6
2018-06-19T00:43:59.271Z,1010.6
2018-06-19T00:45:01.268Z,1010.5
2018-06-19T00:46:03.662Z,1010.5
2018-06-19T00:47:05.645Z,1010.5
2018-06-19T00:48:07.656Z,1010.5
2018-06-19T00:49:09.654Z,1010.5
2018-06-19T00:50:11.659Z,1010.6
2018-06-19T00:51:14.038Z,1010.5
2018-06-19T00:52:16.041Z,1010.5
2018-06-19T00:53:18.034Z,1010.5
2018-06-19T00:54:20.046Z,1010.5
2018-06-19T00:55:22.671Z,1010.5
2018-06-19T00:56:24.692Z,1010.5
2018-06-19T00:57:26.668Z,1010.5
2018-06-19T00:58:28.942Z,1010.5
2018-06-19T00:59:30.943Z,1010.5
2018-06-19T01:00:32.926Z,1010.5
2018-06-19T01:01:34.941Z,1010.5
2018-06-19T01:02:36.941Z,1010.5
2018-06-19T01:03:38.939Z,1010.6
2018-06-19T01:04:40.941Z,1010.6
2018-06-19T01:05:43.517Z,1010.6
2018-06-19T01:06:45.512Z,1010.7
2018-06-19T01:07:47.509Z,1010.7
2018-06-19T01:08:49.518Z,1010.7
2018-06-19T01:09:51.521Z,1010.7
2018-06-19T01:10:53.515Z,1010.6
2018-06-19T01:11:55.516Z,1010.6
2018-06-19T01:12:57.516Z,1010.6
2018-06-19T01:13:59.517Z,1010.6
2018-06-19T01:15:01.521Z,1010.6
2018-06-19T01:16:03.519Z,1010.6
2018-06-19T01:17:05.909Z,1010.5
2018-06-19T01:18:07.902Z,1010.6
2018-06-19T01:19:09.904Z,1010.5
2018-06-19T01:20:12.177Z,1010.5
2018-06-19T01:21:14.174Z,1010.6
2018-06-19T01:22:16.570Z,1010.5
2018-06-19T01:23:18.559Z,1010.5
2018-06-19T01:24:20.559Z,1010.5
2018-06-19T01:25:22.552Z,1010.6
2018-06-19T01:26:24.948Z,1010.5
2018-06-19T01:27:27.222Z,1010.5
2018-06-19T01:28:29.497Z,1010.6
2018-06-19T01:29:31.832Z,1010.6
2018-06-19T01:30:33.825Z,1010.6
2018-06-19T01:31:35.825Z,1010.6
2018-06-19T01:32:37.834Z,1010.6
2018-06-19T01:33:39.822Z,1010.6
2018-06-19T01:34:41.812Z,1010.6
2018-06-19T01:35:44.090Z,1010.6
2018-06-19T01:36:46.091Z,1010.6
2018-06-19T01:37:48.086Z,1010.6
2018-06-19T01:38:50.085Z,1010.6
2018-06-19T01:39:52.085Z,1010.6
2018-06-19T01:40:54.074Z,1010.6
2018-06-19T01:41:56.084Z,1010.6
2018-06-19T01:42:58.083Z,1010.7
2018-06-19T01:44:00.079Z,1010.7
2018-06-19T01:45:02.364Z,1010.7
2018-06-19T01:46:04.360Z,1010.7
2018-06-19T01:47:06.357Z,1010.7
2018-06-19T01:48:08.356Z,1010.8
2018-06-19T01:49:10.735Z,1010.8
2018-06-19T01:50:12.739Z,1010.8
2018-06-19T01:51:14.728Z,1010.7
2018-06-19T01:52:17.290Z,1010.8
2018-06-19T01:53:19.294Z,1010.8
2018-06-19T01:54:21.292Z,1010.8
2018-06-19T01:55:23.283Z,1010.8
2018-06-19T01:56:25.670Z,1010.8
2018-06-19T01:57:27.667Z,1010.8
2018-06-19T01:58:29.668Z,1010.8
2018-06-19T01:59:31.662Z,1010.8
2018-06-19T02:00:33.667Z,1010.8
2018-06-19T02:01:35.679Z,1010.7
2018-06-19T02:02:37.667Z,1010.7
2018-06-19T02:03:39.672Z,1010.8
2018-06-19T02:04:41.674Z,1010.8
2018-06-19T02:05:43.671Z,1010.8
2018-06-19T02:06:45.669Z,1010.8
2018-06-19T02:07:47.659Z,1010.8
2018-06-19T02:08:49.940Z,1010.8
2018-06-19T02:09:51.935Z,1010.8
2018-06-19T02:10:53.930Z,1010.8
2018-06-19T02:11:55.928Z,1010.8
2018-06-19T02:12:57.927Z,1010.8
2018-06-19T02:13:59.930Z,1010.9
2018-06-19T02:15:01.920Z,1010.8
2018-06-19T02:16:03.912Z,1010.8
2018-06-19T02:17:06.202Z,1010.8
2018-06-19T02:18:08.192Z,1010.8
2018-06-19T02:19:10.189Z,1010.8
2018-06-19T02:20:12.201Z,1010.8
2018-06-19T02:21:14.577Z,1010.8
2018-06-19T02:22:16.574Z,1010.8
2018-06-19T02:23:18.567Z,1010.8
2018-06-19T02:24:20.577Z,1010.8
2018-06-19T02:25:22.882Z,1010.8
2018-06-19T02:26:24.876Z,1010.9
2018-06-19T02:27:26.879Z,1010.8
2018-06-19T02:28:29.157Z,1010.8
2018-06-19T02:29:31.539Z,1010.8
2018-06-19T02:30:33.536Z,1010.8
2018-06-19T02:31:35.532Z,1010.8
2018-06-19T02:32:38.105Z,1010.8
2018-06-19T02:33:40.113Z,1010.8
2018-06-19T02:34:43.090Z,1010.8
2018-06-19T02:35:45.381Z,1010.8
2018-06-19T02:36:48.047Z,1010.8
2018-06-19T02:37:50.051Z,1010.8
2018-06-19T02:38:52.834Z,1010.8
2018-06-19T02:39:54.832Z,1010.9
2018-06-19T02:40:57.224Z,1010.9
2018-06-19T02:41:59.228Z,1010.8
2018-06-19T02:43:01.211Z,1010.8
2018-06-19T02:44:03.515Z,1010.9
2018-06-19T02:45:05.511Z,1011
2018-06-19T02:46:07.501Z,1011
2018-06-19T02:47:09.495Z,1010.9
2018-06-19T02:48:11.495Z,1011
2018-06-19T02:49:13.505Z,1011
2018-06-19T02:50:15.489Z,1010.9
2018-06-19T02:51:17.492Z,1010.9
2018-06-19T02:52:20.173Z,1011
2018-06-19T02:53:22.171Z,1010.9
2018-06-19T02:54:24.479Z,1010.9
2018-06-19T02:55:27.076Z,1010.9
2018-06-19T02:56:29.076Z,1011
2018-06-19T02:57:31.656Z,1011
2018-06-19T02:58:34.203Z,1011
2018-06-19T02:59:36.596Z,1011
2018-06-19T03:00:38.588Z,1011
2018-06-19T03:01:40.964Z,1011
2018-06-19T03:02:43.261Z,1011
2018-06-19T03:03:45.258Z,1011
2018-06-19T03:04:47.650Z,1011
2018-06-19T03:05:49.653Z,1011
2018-06-19T03:06:51.644Z,1011.1
2018-06-19T03:07:53.938Z,1011
2018-06-19T03:08:56.310Z,1011.1
2018-06-19T03:09:58.324Z,1011
2018-06-19T03:11:00.603Z,1011
2018-06-19T03:12:02.887Z,1011
2018-06-19T03:13:05.182Z,1011
2018-06-19T03:14:07.165Z,1011
2018-06-19T03:15:09.930Z,1011
2018-06-19T03:16:11.932Z,1011
2018-06-19T03:17:13.923Z,1011
2018-06-19T03:18:16.590Z,1011.1
2018-06-19T03:19:18.590Z,1011.1
2018-06-19T03:20:20.871Z,1011.1
2018-06-19T03:21:22.864Z,1011.1
2018-06-19T03:22:25.240Z,1011.1
2018-06-19T03:23:27.244Z,1011.1
2018-06-19T03:24:29.243Z,1011.1
2018-06-19T03:25:31.232Z,1011.2
2018-06-19T03:26:33.234Z,1011.2
2018-06-19T03:27:35.236Z,1011.2
2018-06-19T03:28:37.522Z,1011.2
2018-06-19T03:29:39.807Z,1011.2
2018-06-19T03:30:41.799Z,1011.2
2018-06-19T03:31:44.420Z,1011.2
2018-06-19T03:32:47.073Z,1011.2
2018-06-19T03:33:49.461Z,1011.2
2018-06-19T03:34:51.457Z,1011.2
2018-06-19T03:35:53.449Z,1011.2
2018-06-19T03:36:55.450Z,1011.2
2018-06-19T03:37:57.442Z,1011.1
2018-06-19T03:38:59.720Z,1011.2
2018-06-19T03:40:01.713Z,1011.2
2018-06-19T03:41:03.699Z,1011.2
2018-06-19T03:42:05.707Z,1011.1
2018-06-19T03:43:07.699Z,1011.1
2018-06-19T03:44:09.692Z,1011.1
2018-06-19T03:45:11.694Z,1011.1
2018-06-19T03:46:13.693Z,1011.1
2018-06-19T03:47:15.696Z,1011
2018-06-19T03:48:17.698Z,1011.1
2018-06-19T03:49:19.691Z,1011.1
2018-06-19T03:50:21.964Z,1011.1
2018-06-19T03:51:24.344Z,1011.1
2018-06-19T03:52:26.342Z,1011.1
2018-06-19T03:53:28.629Z,1011.1
2018-06-19T03:54:30.999Z,1011.1
2018-06-19T03:55:33.278Z,1011.1
2018-06-19T03:56:35.561Z,1011.1
2018-06-19T03:57:37.554Z,1011.1
2018-06-19T03:58:39.947Z,1011.1
2018-06-19T03:59:41.951Z,1011.1
2018-06-19T04:00:43.950Z,1011.2
2018-06-19T04:01:45.947Z,1011.2
2018-06-19T04:02:47.938Z,1011.2
2018-06-19T04:03:49.945Z,1011.2
2018-06-19T04:04:52.220Z,1011.2
2018-06-19T04:05:54.218Z,1011.2
2018-06-19T04:06:56.226Z,1011.2
2018-06-19T04:07:58.223Z,1011.2
2018-06-19T04:09:00.224Z,1011.2
2018-06-19T04:10:02.507Z,1011.2
2018-06-19T04:11:04.787Z,1011.3
2018-06-19T04:12:06.784Z,1011.2
2018-06-19T04:13:08.771Z,1011.3
2018-06-19T04:14:10.776Z,1011.3
2018-06-19T04:15:12.772Z,1011.3
2018-06-19T04:16:14.769Z,1011.3
2018-06-19T04:17:17.111Z,1011.3
2018-06-19T04:18:19.077Z,1011.4
2018-06-19T04:19:21.073Z,1011.3
2018-06-19T04:20:23.066Z,1011.3
2018-06-19T04:21:25.066Z,1011.4
2018-06-19T04:22:27.079Z,1011.3
2018-06-19T04:23:29.075Z,1011.4
2018-06-19T04:24:31.457Z,1011.3
2018-06-19T04:25:33.840Z,1011.4
2018-06-19T04:26:36.115Z,1011.4
2018-06-19T04:27:38.124Z,1011.4
2018-06-19T04:28:40.128Z,1011.4
2018-06-19T04:29:42.113Z,1011.4
2018-06-19T04:30:44.113Z,1011.3
2018-06-19T04:31:46.110Z,1011.4
2018-06-19T04:32:48.102Z,1011.3
2018-06-19T04:33:50.102Z,1011.3
2018-06-19T04:34:52.102Z,1011.3
2018-06-19T04:35:54.105Z,1011.3
2018-06-19T04:36:56.094Z,1011.3
2018-06-19T04:37:58.370Z,1011.3
2018-06-19T04:39:00.385Z,1011.3
2018-06-19T04:40:02.762Z,1011.3
2018-06-19T04:41:04.764Z,1011.3
2018-06-19T04:42:07.193Z,1011.3
2018-06-19T04:43:09.123Z,1011.3
2018-06-19T04:44:11.116Z,1011.2
2018-06-19T04:45:13.116Z,1011.2
2018-06-19T04:46:15.408Z,1011.2
2018-06-19T04:47:17.406Z,1011.2
2018-06-19T04:48:19.411Z,1011.2
2018-06-19T04:49:21.412Z,1011.2
2018-06-19T04:50:23.691Z,1011.2
2018-06-19T04:51:26.081Z,1011.2
2018-06-19T04:52:28.077Z,1011.2
2018-06-19T04:53:30.081Z,1011.2
2018-06-19T04:54:32.472Z,1011.1
2018-06-19T04:55:34.456Z,1011.1
2018-06-19T04:56:36.837Z,1011.1
2018-06-19T04:57:39.222Z,1011
2018-06-19T04:58:41.603Z,1011.1
2018-06-19T04:59:43.601Z,1011.1
2018-06-19T05:00:45.604Z,1011.1
2018-06-19T05:01:47.597Z,1011
2018-06-19T05:02:49.613Z,1011
2018-06-19T05:03:51.916Z,1011
2018-06-19T05:04:53.883Z,1011
2018-06-19T05:05:55.890Z,1011
2018-06-19T05:06:58.174Z,1011
2018-06-19T05:08:00.449Z,1011
2018-06-19T05:09:02.452Z,1011
2018-06-19T05:10:04.436Z,1011
2018-06-19T05:11:06.450Z,1011
2018-06-19T05:12:08.435Z,1011
2018-06-19T05:13:10.439Z,1011.1
2018-06-19T05:14:12.729Z,1011.1
2018-06-19T05:15:14.730Z,1011.1
2018-06-19T05:16:17.423Z,1011.1
2018-06-19T05:17:19.707Z,1011.1
2018-06-19T05:18:21.989Z,1011
2018-06-19T05:19:24.016Z,1011
2018-06-19T05:20:26.006Z,1011.1
2018-06-19T05:21:28.018Z,1011.1
2018-06-19T05:22:30.586Z,1011
2018-06-19T05:23:32.966Z,1011
2018-06-19T05:24:34.969Z,1011.1
2018-06-19T05:25:37.355Z,1011.1
2018-06-19T05:26:39.349Z,1011
2018-06-19T05:27:41.358Z,1011.1
2018-06-19T05:28:43.344Z,1011
2018-06-19T05:29:45.353Z,1011
2018-06-19T05:30:47.341Z,1011
2018-06-19T05:31:49.915Z,1011
2018-06-19T05:32:51.915Z,1011
2018-06-19T05:33:53.911Z,1011
2018-06-19T05:34:55.963Z,1011
2018-06-19T05:35:57.921Z,1011
2018-06-19T05:37:00.295Z,1011
2018-06-19T05:38:02.302Z,1011
2018-06-19T05:39:04.290Z,1011
2018-06-19T05:40:06.288Z,1011
2018-06-19T05:41:08.288Z,1011.1
2018-06-19T05:42:10.676Z,1011.1
2018-06-19T05:43:12.665Z,1011.1
2018-06-19T05:44:14.663Z,1011.1
2018-06-19T05:45:16.673Z,1011.1
2018-06-19T05:46:18.743Z,1011.1
2018-06-19T05:47:20.658Z,1011.2
2018-06-19T05:48:22.653Z,1011.1
2018-06-19T05:49:24.691Z,1011.2
2018-06-19T05:50:26.959Z,1011.2
2018-06-19T05:51:28.948Z,1011.1
2018-06-19T05:52:30.958Z,1011.2
2018-06-19T05:53:33.530Z,1011.2
2018-06-19T05:54:35.521Z,1011.1
2018-06-19T05:55:37.913Z,1011.2
2018-06-19T05:56:39.910Z,1011.2
2018-06-19T05:57:42.195Z,1011.2
2018-06-19T05:58:44.470Z,1011.1
2018-06-19T05:59:46.474Z,1011.1
2018-06-19T06:00:48.474Z,1011.1
2018-06-19T06:01:50.731Z,1011.1
2018-06-19T06:02:52.726Z,1011.2
2018-06-19T06:03:55.020Z,1011.1
2018-06-19T06:04:57.309Z,1011.2
2018-06-19T06:05:59.301Z,1011.2
2018-06-19T06:07:01.304Z,1011.1
2018-06-19T06:08:04.268Z,1011.1
2018-06-19T06:09:06.276Z,1011.1
2018-06-19T06:10:08.276Z,1011.1
2018-06-19T06:11:10.327Z,1011.1
2018-06-19T06:12:12.279Z,1011
2018-06-19T06:13:14.269Z,1011
2018-06-19T06:14:16.546Z,1011
2018-06-19T06:15:18.833Z,1011.1
2018-06-19T06:16:20.836Z,1011.1
2018-06-19T06:17:23.185Z,1011.2
2018-06-19T06:18:25.158Z,1011.2
2018-06-19T06:19:27.162Z,1011.2
2018-06-19T06:20:29.164Z,1011.2
2018-06-19T06:21:31.164Z,1011.3
2018-06-19T06:22:33.168Z,1011.3
2018-06-19T06:23:35.151Z,1011.3
2018-06-19T06:24:37.153Z,1011.3
2018-06-19T06:25:39.153Z,1011.3
2018-06-19T06:26:41.148Z,1011.3
2018-06-19T06:27:43.808Z,1011.3
2018-06-19T06:28:45.801Z,1011.3
2018-06-19T06:29:47.803Z,1011.4
2018-06-19T06:30:49.801Z,1011.3
2018-06-19T06:31:52.171Z,1011.3
2018-06-19T06:32:54.185Z,1011.3
2018-06-19T06:33:56.187Z,1011.3
2018-06-19T06:34:58.183Z,1011.4
2018-06-19T06:36:00.192Z,1011.4
2018-06-19T06:37:02.223Z,1011.4
2018-06-19T06:38:04.964Z,1011.4
2018-06-19T06:39:06.966Z,1011.5
2018-06-19T06:40:09.343Z,1011.4
2018-06-19T06:41:11.346Z,1011.4
2018-06-19T06:42:13.336Z,1011.5
2018-06-19T06:43:15.329Z,1011.5
2018-06-19T06:44:17.620Z,1011.4
2018-06-19T06:45:19.609Z,1011.5
2018-06-19T06:46:21.902Z,1011.6
2018-06-19T06:47:23.902Z,1011.6
2018-06-19T06:48:26.198Z,1011.6
2018-06-19T06:49:28.207Z,1011.6
2018-06-19T06:50:30.367Z,1011.6
2018-06-19T06:51:33.616Z,1011.6
2018-06-19T06:52:35.608Z,1011.7
2018-06-19T06:53:37.601Z,1011.6
2018-06-19T06:54:39.607Z,1011.6
2018-06-19T06:55:41.615Z,1011.6
2018-06-19T06:56:43.626Z,1011.6
2018-06-19T06:57:45.923Z,1011.7
2018-06-19T06:58:47.918Z,1011.7
2018-06-19T06:59:49.921Z,1011.7
2018-06-19T07:00:51.918Z,1011.8
2018-06-19T07:01:53.920Z,1011.7
2018-06-19T07:02:56.207Z,1011.8
2018-06-19T07:03:58.501Z,1011.7
2018-06-19T07:05:00.798Z,1011.7
2018-06-19T07:06:02.785Z,1011.7
2018-06-19T07:07:04.786Z,1011.7
2018-06-19T07:08:07.087Z,1011.7
2018-06-19T07:09:09.088Z,1011.7
2018-06-19T07:10:11.111Z,1011.7
2018-06-19T07:11:13.084Z,1011.7
2018-06-19T07:12:15.082Z,1011.7
2018-06-19T07:13:17.092Z,1011.7
2018-06-19T07:14:19.465Z,1011.7
2018-06-19T07:15:21.764Z,1011.6
2018-06-19T07:16:23.773Z,1011.6
2018-06-19T07:17:26.157Z,1011.7
2018-06-19T07:18:28.448Z,1011.7
2018-06-19T07:19:30.495Z,1011.6
2018-06-19T07:20:32.448Z,1011.7
2018-06-19T07:21:34.450Z,1011.6
2018-06-19T07:22:36.443Z,1011.7
2018-06-19T07:23:38.446Z,1011.8
2018-06-19T07:24:40.436Z,1011.7
2018-06-19T07:25:42.437Z,1011.8
2018-06-19T07:26:44.507Z,1011.8
2018-06-19T07:27:47.096Z,1011.8
2018-06-19T07:28:49.096Z,1011.8
2018-06-19T07:29:51.093Z,1011.8
2018-06-19T07:30:53.150Z,1011.8
2018-06-19T07:31:55.111Z,1011.8
2018-06-19T07:32:57.429Z,1011.8
2018-06-19T07:33:59.426Z,1011.8
2018-06-19T07:35:01.717Z,1011.8
2018-06-19T07:36:03.715Z,1011.8
2018-06-19T07:37:05.719Z,1011.8
2018-06-19T07:38:07.879Z,1011.8
2018-06-19T07:39:10.238Z,1011.8
2018-06-19T07:40:12.245Z,1011.8
2018-06-19T07:41:14.244Z,1011.9
2018-06-19T07:42:16.548Z,1011.8
2018-06-19T07:43:18.549Z,1011.9
2018-06-19T07:44:20.548Z,1011.9
2018-06-19T07:45:22.552Z,1011.9
2018-06-19T07:46:24.549Z,1011.9
2018-06-19T07:47:27.209Z,1011.9
2018-06-19T07:48:29.219Z,1011.9
2018-06-19T07:49:31.678Z,1011.9
2018-06-19T07:50:33.649Z,1012
2018-06-19T07:51:35.627Z,1012
2018-06-19T07:52:37.623Z,1012
2018-06-19T07:53:39.626Z,1012
2018-06-19T07:54:41.627Z,1012
2018-06-19T07:55:43.667Z,1012
2018-06-19T07:56:45.676Z,1012
2018-06-19T07:57:48.730Z,1012
2018-06-19T07:58:50.735Z,1012
2018-06-19T07:59:52.737Z,1012
2018-06-19T08:00:54.741Z,1012
2018-06-19T08:01:56.743Z,1012
2018-06-19T08:02:58.750Z,1012
2018-06-19T08:04:01.139Z,1012.1
2018-06-19T08:05:03.130Z,1012.1
2018-06-19T08:06:05.132Z,1012.1
2018-06-19T08:07:07.428Z,1012
2018-06-19T08:08:09.711Z,1012.1
2018-06-19T08:09:12.101Z,1012.1
2018-06-19T08:10:14.101Z,1012.1
2018-06-19T08:11:16.104Z,1012.2
2018-06-19T08:12:18.490Z,1012.2
2018-06-19T08:13:20.514Z,1012.3
2018-06-19T08:14:23.191Z,1012.3
2018-06-19T08:15:25.198Z,1012.3
2018-06-19T08:16:27.204Z,1012.3
2018-06-19T08:17:29.206Z,1012.3
2018-06-19T08:18:31.206Z,1012.3
2018-06-19T08:19:33.205Z,1012.3
2018-06-19T08:20:35.212Z,1012.2
2018-06-19T08:21:37.205Z,1012.3
2018-06-19T08:22:39.206Z,1012.3
2018-06-19T08:23:41.213Z,1012.3
2018-06-19T08:24:43.204Z,1012.1
2018-06-19T08:25:45.207Z,1012.1
2018-06-19T08:26:47.217Z,1012.1
2018-06-19T08:27:49.501Z,1012.1
2018-06-19T08:28:51.507Z,1012.1
2018-06-19T08:29:53.498Z,1012
2018-06-19T08:30:55.505Z,1012.1
2018-06-19T08:31:57.508Z,1012.1
2018-06-19T08:32:59.511Z,1012.1
2018-06-19T08:34:01.520Z,1012.1
2018-06-19T08:35:03.804Z,1012.1
2018-06-19T08:36:05.805Z,1012
2018-06-19T08:37:07.822Z,1012.1
2018-06-19T08:38:10.095Z,1012.1
2018-06-19T08:39:12.412Z,1012.2
2018-06-19T08:40:14.476Z,1012.2
2018-06-19T08:41:16.863Z,1012.1
2018-06-19T08:42:19.541Z,1012.3
2018-06-19T08:43:22.116Z,1012.2
2018-06-19T08:44:24.403Z,1012.3
2018-06-19T08:45:26.696Z,1012.3
2018-06-19T08:46:28.699Z,1012.2
2018-06-19T08:47:30.709Z,1012.3
2018-06-19T08:48:32.997Z,1012.4
2018-06-19T08:49:35.002Z,1012.4
2018-06-19T08:50:37.593Z,1012.4
2018-06-19T08:51:39.571Z,1012.4
2018-06-19T08:52:41.578Z,1012.5
2018-06-19T08:53:43.965Z,1012.4
2018-06-19T08:54:46.243Z,1012.5
2018-06-19T08:55:48.243Z,1012.5
2018-06-19T08:56:50.247Z,1012.5
2018-06-19T08:57:52.526Z,1012.5
2018-06-19T08:58:54.539Z,1012.5
2018-06-19T08:59:57.211Z,1012.5
2018-06-19T09:00:59.213Z,1012.5
2018-06-19T09:02:01.215Z,1012.5
2018-06-19T09:03:03.215Z,1012.5
2018-06-19T09:04:05.235Z,1012.6
2018-06-19T09:05:07.627Z,1012.5
2018-06-19T09:06:09.636Z,1012.6
2018-06-19T09:07:11.640Z,1012.6
2018-06-19T09:08:13.958Z,1012.7
2018-06-19T09:09:16.252Z,1012.7
2018-06-19T09:10:18.555Z,1012.6
2018-06-19T09:11:20.569Z,1012.6
2018-06-19T09:12:22.854Z,1012.7
2018-06-19T09:13:24.949Z,1012.6
2018-06-19T09:14:27.247Z,1012.6
2018-06-19T09:15:29.274Z,1012.6
2018-06-19T09:16:31.664Z,1012.6
2018-06-19T09:17:33.678Z,1012.7
2018-06-19T09:18:36.368Z,1012.6
2018-06-19T09:19:38.387Z,1012.7
2018-06-19T09:20:40.376Z,1012.7
2018-06-19T09:21:42.981Z,1012.7
2018-06-19T09:22:45.790Z,1012.6
2018-06-19T09:23:47.791Z,1012.7
2018-06-19T09:24:49.795Z,1012.7
2018-06-19T09:25:52.193Z,1012.7
2018-06-19T09:26:54.215Z,1012.7
2018-06-19T09:27:56.326Z,1012.7
2018-06-19T09:28:58.345Z,1012.6
2018-06-19T09:30:00.360Z,1012.5
2018-06-19T09:31:02.409Z,1012.7
2018-06-19T09:32:04.462Z,1012.6
2018-06-19T09:33:06.472Z,1012.7
2018-06-19T09:34:08.501Z,1012.7
2018-06-19T09:35:10.881Z,1012.7
2018-06-19T09:36:12.909Z,1012.7
2018-06-19T09:37:15.197Z,1012.7
2018-06-19T09:38:17.214Z,1012.7
2018-06-19T09:39:19.217Z,1012.7
2018-06-19T09:40:21.231Z,1012.7
2018-06-19T09:41:23.275Z,1012.7
2018-06-19T09:42:25.275Z,1012.7
2018-06-19T09:43:27.281Z,1012.7
2018-06-19T09:44:29.683Z,1012.7
2018-06-19T09:45:31.675Z,1012.7
2018-06-19T09:46:33.699Z,1012.7
2018-06-19T09:47:35.710Z,1012.7
2018-06-19T09:48:37.755Z,1012.7
2018-06-19T09:49:40.066Z,1012.7
2018-06-19T09:50:42.087Z,1012.7
2018-06-19T09:51:44.094Z,1012.7
2018-06-19T09:52:46.487Z,1012.7
2018-06-19T09:53:48.551Z,1012.7
2018-06-19T09:54:50.573Z,1012.7
2018-06-19T09:55:52.571Z,1012.5
2018-06-19T09:56:54.583Z,1012.6
2018-06-19T09:57:56.885Z,1012.6
2018-06-19T09:58:58.899Z,1012.6
2018-06-19T10:00:01.615Z,1012.6
2018-06-19T10:01:03.610Z,1012.6
2018-06-19T10:02:05.613Z,1012.6
2018-06-19T10:03:07.627Z,1012.6
2018-06-19T10:04:09.627Z,1012.6
2018-06-19T10:05:11.684Z,1012.6
2018-06-19T10:06:13.767Z,1012.6
2018-06-19T10:07:16.048Z,1012.6
2018-06-19T10:08:18.072Z,1012.6
2018-06-19T10:09:20.079Z,1012.7
2018-06-19T10:10:22.466Z,1012.6
2018-06-19T10:11:24.476Z,1012.7
2018-06-19T10:12:26.476Z,1012.7
2018-06-19T10:13:28.775Z,1012.7
2018-06-19T10:14:30.783Z,1012.6
2018-06-19T10:15:33.068Z,1012.7
2018-06-19T10:16:35.079Z,1012.7
2018-06-19T10:17:37.361Z,1012.7
2018-06-19T10:18:39.369Z,1012.7
2018-06-19T10:19:41.381Z,1012.8
2018-06-19T10:20:43.385Z,1012.7
2018-06-19T10:21:45.388Z,1012.8
2018-06-19T10:22:47.396Z,1012.7
2018-06-19T10:23:50.098Z,1012.7
2018-06-19T10:24:52.105Z,1012.7
2018-06-19T10:25:54.099Z,1012.6
2018-06-19T10:26:56.120Z,1012.8
2018-06-19T10:27:58.796Z,1012.6
2018-06-19T10:29:00.794Z,1012.7
2018-06-19T10:30:02.803Z,1012.6
2018-06-19T10:31:04.815Z,1012.7
2018-06-19T10:32:06.823Z,1012.7
2018-06-19T10:33:08.826Z,1012.7
2018-06-19T10:34:10.834Z,1012.7
2018-06-19T10:35:13.235Z,1012.7
2018-06-19T10:36:15.897Z,1012.8
2018-06-19T10:37:18.184Z,1012.7
2018-06-19T10:38:20.198Z,1012.8
2018-06-19T10:39:22.206Z,1012.8
2018-06-19T10:40:24.485Z,1012.7
2018-06-19T10:41:26.484Z,1012.8
2018-06-19T10:42:28.500Z,1012.7
2018-06-19T10:43:30.506Z,1012.8
2018-06-19T10:44:32.517Z,1012.7
2018-06-19T10:45:34.525Z,1012.7
2018-06-19T10:46:36.912Z,1012.8
2018-06-19T10:47:38.917Z,1012.8
2018-06-19T10:48:40.919Z,1012.7
2018-06-19T10:49:42.920Z,1012.8
2018-06-19T10:50:44.930Z,1012.8
2018-06-19T10:51:47.211Z,1012.9
2018-06-19T10:52:49.230Z,1012.8
2018-06-19T10:53:51.221Z,1012.9
2018-06-19T10:54:53.223Z,1012.9
2018-06-19T10:55:55.230Z,1012.9
2018-06-19T10:56:57.298Z,1012.8
2018-06-19T10:57:59.257Z,1012.9
2018-06-19T10:59:01.614Z,1012.9
2018-06-19T11:00:04.401Z,1012.9
2018-06-19T11:01:06.414Z,1012.9
2018-06-19T11:02:08.412Z,1012.9
2018-06-19T11:03:11.089Z,1012.9
2018-06-19T11:04:13.104Z,1012.9
2018-06-19T11:05:15.105Z,1012.9
2018-06-19T11:06:17.127Z,1012.9
2018-06-19T11:07:19.186Z,1013
2018-06-19T11:08:21.143Z,1012.9
2018-06-19T11:09:23.135Z,1013
2018-06-19T11:10:25.129Z,1012.9
2018-06-19T11:11:27.143Z,1012.9
2018-06-19T11:12:29.529Z,1012.9
2018-06-19T11:13:31.551Z,1012.9
2018-06-19T11:14:33.559Z,1013
2018-06-19T11:15:35.572Z,1012.9
2018-06-19T11:16:37.960Z,1012.9
2018-06-19T11:17:39.973Z,1012.9
2018-06-19T11:18:41.971Z,1012.9
2018-06-19T11:19:43.989Z,1012.9
2018-06-19T11:20:45.995Z,1013
2018-06-19T11:21:48.009Z,1013
2018-06-19T11:22:50.014Z,1013
2018-06-19T11:23:52.038Z,1013
2018-06-19T11:24:54.019Z,1013
2018-06-19T11:25:56.101Z,1013
2018-06-19T11:26:58.227Z,1013
2018-06-19T11:28:00.236Z,1012.9
2018-06-19T11:29:02.324Z,1013
2018-06-19T11:30:04.679Z,1013
2018-06-19T11:31:06.675Z,1013
2018-06-19T11:32:08.788Z,1013
2018-06-19T11:33:10.804Z,1013
2018-06-19T11:34:12.813Z,1013
2018-06-19T11:35:14.807Z,1013
2018-06-19T11:36:16.810Z,1013
2018-06-19T11:37:19.115Z,1013
2018-06-19T11:38:21.114Z,1013
2018-06-19T11:39:23.115Z,1013
2018-06-19T11:40:25.411Z,1012.9
2018-06-19T11:41:27.424Z,1013
2018-06-19T11:42:29.419Z,1013
2018-06-19T11:43:31.453Z,1013
2018-06-19T11:44:34.226Z,1013
2018-06-19T11:45:36.621Z,1013
2018-06-19T11:46:38.621Z,1013
2018-06-19T11:47:40.621Z,1013
2018-06-19T11:48:42.638Z,1013.1
2018-06-19T11:49:44.636Z,1013
2018-06-19T11:50:46.643Z,1013
2018-06-19T11:51:49.335Z,1013.1
2018-06-19T11:52:51.333Z,1013.1
2018-06-19T11:53:53.339Z,1013.1
2018-06-19T11:54:55.341Z,1013.2
2018-06-19T11:55:57.352Z,1013.1
2018-06-19T11:56:59.737Z,1013.2
2018-06-19T11:58:01.743Z,1013.2
2018-06-19T11:59:04.100Z,1013.3
2018-06-19T12:00:06.105Z,1013.4
2018-06-19T12:01:08.159Z,1013.3
2018-06-19T12:02:10.118Z,1013.3
2018-06-19T12:03:12.125Z,1013.3
2018-06-19T12:04:14.117Z,1013.4
2018-06-19T12:05:16.124Z,1013.4
2018-06-19T12:06:18.138Z,1013.4
2018-06-19T12:07:20.142Z,1013.2
2018-06-19T12:08:22.429Z,1013.3
2018-06-19T12:09:24.437Z,1013.3
2018-06-19T12:10:26.453Z,1013.3
2018-06-19T12:11:28.438Z,1013.3
2018-06-19T12:12:30.438Z,1013.3
2018-06-19T12:13:32.460Z,1013.4
2018-06-19T12:14:34.735Z,1013.5
2018-06-19T12:15:36.737Z,1013.5
2018-06-19T12:16:38.742Z,1013.5
2018-06-19T12:17:40.745Z,1013.5
2018-06-19T12:18:42.747Z,1013.5
2018-06-19T12:19:44.765Z,1013.5
2018-06-19T12:20:47.152Z,1013.5
2018-06-19T12:21:49.177Z,1013.5
2018-06-19T12:22:51.162Z,1013.5
2018-06-19T12:23:53.189Z,1013.5
2018-06-19T12:24:55.556Z,1013.5
2018-06-19T12:25:57.557Z,1013.5
2018-06-19T12:26:59.566Z,1013.5
2018-06-19T12:28:01.877Z,1013.5
2018-06-19T12:29:03.883Z,1013.5
2018-06-19T12:30:05.882Z,1013.5
2018-06-19T12:31:07.883Z,1013.4
2018-06-19T12:32:09.897Z,1013.5
2018-06-19T12:33:11.903Z,1013.5
2018-06-19T12:34:13.899Z,1013.4
2018-06-19T12:35:15.906Z,1013.4
2018-06-19T12:36:17.909Z,1013.5
2018-06-19T12:37:20.264Z,1013.5
2018-06-19T12:38:22.223Z,1013.7
2018-06-19T12:39:24.229Z,1013.5
2018-06-19T12:40:26.233Z,1013.5
2018-06-19T12:41:28.855Z,1013.6
2018-06-19T12:42:31.151Z,1013.5
2018-06-19T12:43:33.150Z,1013.6
2018-06-19T12:44:35.139Z,1013.5
2018-06-19T12:45:37.158Z,1013.6
2018-06-19T12:46:39.146Z,1013.4
2018-06-19T12:47:41.154Z,1013.5
2018-06-19T12:48:43.543Z,1013.5
2018-06-19T12:49:45.593Z,1013.3
2018-06-19T12:50:47.544Z,1013.4
2018-06-19T12:51:49.544Z,1013.4
2018-06-19T12:52:51.937Z,1013.5
2018-06-19T12:53:53.960Z,1013.4
2018-06-19T12:54:55.949Z,1013.4
2018-06-19T12:55:58.355Z,1013.5
2018-06-19T12:57:00.355Z,1013.5
2018-06-19T12:58:02.365Z,1013.5
2018-06-19T12:59:04.370Z,1013.5
2018-06-19T13:00:06.660Z,1013.5
2018-06-19T13:01:08.680Z,1013.5